Time;durP1;ratioP1;P1;durP2;ratioP2;P2;SDS_P1;SDS_P2;PMS_P1;PMS_P2;Temp;Humidity;BMP_temperature;BMP_pressure;BME280_temperature;BME280_humidity;BME280_pressure;Samples;Min_cycle;Max_cycle;Signal;HPM_P1;HPM_P2
2022/08/19 00:01:53;;;;;;;15.15;13.52;;;;;;;23.35;54.29;100186.75;4163188;28;20041;-67
2022/08/19 00:03:58;;;;;;;15.45;13.85;;;;;;;23.39;54.27;100186.63;4163222;28;20063;-67
2022/08/19 00:06:01;;;;;;;18.77;16.83;;;;;;;23.41;53.92;100187.41;4163758;28;20053;-67
2022/08/19 00:08:04;;;;;;;20.50;18.50;;;;;;;23.47;53.74;100181.84;4163827;28;20045;-67
2022/08/19 00:10:10;;;;;;;19.08;17.23;;;;;;;23.45;53.55;100175.72;4162601;28;20050;-67
2022/08/19 00:12:13;;;;;;;20.15;16.90;;;;;;;23.39;53.67;100165.41;4162386;28;20068;-66
2022/08/19 00:14:17;;;;;;;19.33;17.40;;;;;;;23.39;53.66;100160.94;4163689;28;20406;-67
2022/08/19 00:16:21;;;;;;;17.90;16.15;;;;;;;23.35;53.65;100154.06;4146041;28;20767;-66
2022/08/19 00:18:28;;;;;;;16.33;14.73;;;;;;;23.31;53.76;100153.31;4163605;28;20068;-66
2022/08/19 00:20:31;;;;;;;20.65;18.42;;;;;;;23.45;53.54;100146.56;4160974;28;20033;-66
2022/08/19 00:22:34;;;;;;;19.65;17.55;;;;;;;23.35;53.63;100152.28;4145533;28;20065;-66
2022/08/19 00:24:38;;;;;;;17.67;16.08;;;;;;;23.36;53.68;100139.84;4163478;28;20041;-66
2022/08/19 00:26:43;;;;;;;15.00;13.45;;;;;;;23.26;53.89;100139.41;4162409;28;20084;-66
2022/08/19 00:28:46;;;;;;;15.35;13.75;;;;;;;23.28;54.14;100142.00;4163432;28;20046;-67
2022/08/19 00:30:51;;;;;;;16.77;15.07;;;;;;;23.20;54.41;100152.06;4160036;28;20041;-67
2022/08/19 00:32:54;;;;;;;16.20;14.23;;;;;;;23.14;54.58;100161.16;4163252;28;20033;-67
2022/08/19 00:34:58;;;;;;;17.70;15.27;;;;;;;23.14;54.82;100156.72;4162658;28;20152;-67
2022/08/19 00:37:00;;;;;;;16.90;15.30;;;;;;;23.11;54.83;100156.84;4163399;28;20049;-67
2022/08/19 00:39:04;;;;;;;15.63;14.02;;;;;;;23.09;55.04;100149.88;4162907;28;20053;-66
2022/08/19 00:41:08;;;;;;;15.52;13.93;;;;;;;23.09;55.15;100149.88;4163273;28;20087;-66
2022/08/19 00:43:13;;;;;;;15.57;13.98;;;;;;;23.10;54.73;100140.97;4162799;28;20037;-66
2022/08/19 00:45:25;;;;;;;16.95;15.15;;;;;;;23.17;54.88;100147.75;4158280;28;20053;-66
2022/08/19 00:47:28;;;;;;;17.45;15.65;;;;;;;23.17;54.92;100139.81;4156496;28;20372;-67
2022/08/19 00:49:35;;;;;;;17.08;15.27;;;;;;;23.20;54.71;100144.13;4162865;28;20549;-67
2022/08/19 00:51:38;;;;;;;15.90;14.18;;;;;;;23.20;54.48;100146.78;4162749;28;20045;-66
2022/08/19 00:53:42;;;;;;;19.90;15.52;;;;;;;23.19;54.48;100137.97;4164218;28;20068;-67
2022/08/19 00:55:46;;;;;;;17.38;15.65;;;;;;;23.20;54.52;100131.72;4157972;28;20056;-67
2022/08/19 00:57:58;;;;;;;15.20;13.57;;;;;;;23.23;54.46;100136.91;4164137;28;20082;-67
2022/08/19 01:00:07;;;;;;;16.10;14.55;;;;;;;23.24;54.50;100135.97;4179814;28;20516;-67
2022/08/19 01:02:11;;;;;;;15.68;14.15;;;;;;;23.22;54.55;100132.53;4180258;28;20098;-66
2022/08/19 01:04:14;;;;;;;16.15;14.45;;;;;;;23.16;54.65;100141.59;4179290;28;20449;-67
2022/08/19 01:06:17;;;;;;;17.33;14.02;;;;;;;23.21;54.53;100145.84;4163078;28;20048;-67
2022/08/19 01:08:24;;;;;;;15.45;13.88;;;;;;;23.22;54.57;100148.44;4163042;28;20069;-67
2022/08/19 01:10:30;;;;;;;20.40;18.50;;;;;;;23.26;54.27;100139.41;4147830;28;20104;-66
2022/08/19 01:12:39;;;;;;;14.82;13.32;;;;;;;23.21;54.50;100130.78;4146085;28;20492;-67
2022/08/19 01:14:42;;;;;;;18.98;17.10;;;;;;;23.33;53.72;100135.56;4147313;28;20439;-66
2022/08/19 01:16:47;;;;;;;16.23;14.13;;;;;;;23.23;54.22;100126.31;4157353;28;20042;-66
2022/08/19 01:18:51;;;;;;;16.05;14.45;;;;;;;23.18;54.28;100120.31;4162692;28;20072;-66
2022/08/19 01:20:57;;;;;;;16.02;14.35;;;;;;;23.16;54.21;100123.03;4164069;28;20116;-66
2022/08/19 01:23:01;;;;;;;19.30;17.50;;;;;;;23.25;53.90;100129.72;4165846;28;20046;-66
2022/08/19 01:25:06;;;;;;;16.63;15.13;;;;;;;23.18;54.45;100133.59;4160435;28;20037;-66
2022/08/19 01:27:16;;;;;;;16.42;14.65;;;;;;;23.14;54.65;100138.16;4165938;28;20045;-66
2022/08/19 01:29:19;;;;;;;18.00;16.05;;;;;;;23.16;54.17;100148.72;4165807;28;20052;-66
2022/08/19 01:31:26;;;;;;;15.35;13.80;;;;;;;23.10;54.31;100148.91;4167283;28;20065;-66
2022/08/19 01:33:30;;;;;;;15.98;14.27;;;;;;;23.02;54.62;100146.59;4167268;28;20033;-66
2022/08/19 01:35:35;;;;;;;16.45;14.75;;;;;;;22.98;54.61;100151.19;4159219;28;20444;-66
2022/08/19 01:37:46;;;;;;;15.60;13.55;;;;;;;23.04;54.55;100152.69;4158261;28;20038;-66
2022/08/19 01:39:51;;;;;;;17.77;16.00;;;;;;;23.05;54.70;100141.16;4165616;28;20076;-66
2022/08/19 01:41:54;;;;;;;18.35;16.45;;;;;;;23.08;54.62;100142.81;4166801;28;20041;-66
2022/08/19 01:43:58;;;;;;;16.03;14.33;;;;;;;23.09;54.52;100144.56;4165682;28;20038;-66
2022/08/19 01:46:20;;;;;;;15.50;14.00;;;;;;;23.17;53.88;100142.44;4159602;28;20037;-66
2022/08/19 01:48:29;;;;;;;18.20;15.98;;;;;;;23.10;54.42;100157.78;4164103;28;20065;-67
2022/08/19 01:50:33;;;;;;;17.63;15.75;;;;;;;23.10;54.37;100154.22;4164823;28;20133;-66
2022/08/19 01:52:37;;;;;;;15.98;14.25;;;;;;;23.12;54.16;100141.81;4159025;28;20045;-67
2022/08/19 01:54:40;;;;;;;16.00;14.50;;;;;;;23.07;54.40;100141.09;4161739;28;20040;-66
2022/08/19 01:56:44;;;;;;;19.67;17.75;;;;;;;23.14;54.06;100139.94;4153509;28;20607;-66
2022/08/19 01:58:50;;;;;;;;;;;;;;;23.12;54.13;100147.97;4160525;28;20120;-65
2022/08/19 02:00:53;;;;;;;18.05;16.20;;;;;;;22.97;54.62;100136.19;4164474;28;19928;-66
2022/08/19 02:02:56;;;;;;;17.08;15.30;;;;;;;22.92;54.96;100140.81;4160399;28;20044;-65
2022/08/19 02:05:00;;;;;;;15.40;13.80;;;;;;;23.00;54.52;100146.66;4164644;28;20032;-66
2022/08/19 02:07:03;;;;;;;15.63;14.07;;;;;;;23.00;54.51;100132.56;4166749;28;20491;-66
2022/08/19 02:09:07;;;;;;;19.73;16.90;;;;;;;23.05;54.34;100142.97;4165471;28;20099;-65
2022/08/19 02:11:20;;;;;;;20.42;18.52;;;;;;;23.12;54.30;100147.09;4162558;28;20471;-66
2022/08/19 02:13:25;;;;;;;15.77;14.10;;;;;;;23.05;54.51;100143.81;4157983;28;20396;-66
2022/08/19 02:15:28;;;;;;;17.15;15.50;;;;;;;23.01;54.63;100145.75;4160334;28;20042;-66
2022/08/19 02:17:31;;;;;;;16.17;14.50;;;;;;;23.01;54.72;100147.53;4165600;28;20041;-66
2022/08/19 02:19:34;;;;;;;16.05;14.45;;;;;;;23.01;55.00;100156.34;4163278;28;20073;-66
2022/08/19 02:21:40;;;;;;;16.65;14.95;;;;;;;23.05;54.82;100149.13;4165491;28;20649;-66
2022/08/19 02:23:43;;;;;;;17.10;15.40;;;;;;;23.03;54.86;100145.69;4168713;28;20037;-66
2022/08/19 02:25:48;;;;;;;16.08;14.18;;;;;;;23.01;54.80;100140.44;4180784;28;20083;-66
2022/08/19 02:27:51;;;;;;;16.67;14.90;;;;;;;22.99;54.93;100136.13;4181887;28;20120;-66
2022/08/19 02:29:57;;;;;;;21.10;18.90;;;;;;;23.00;54.92;100144.03;4173966;28;20033;-66
2022/08/19 02:32:00;;;;;;;19.10;17.30;;;;;;;23.04;54.76;100154.50;4162980;28;20042;-66
2022/08/19 02:34:03;;;;;;;16.88;15.27;;;;;;;23.01;54.98;100163.44;4148694;28;20053;-66
2022/08/19 02:36:08;;;;;;;18.20;16.05;;;;;;;22.97;55.15;100161.84;4147849;28;20491;-66
2022/08/19 02:38:25;;;;;;;20.45;17.95;;;;;;;23.01;55.16;100171.38;4153049;28;20053;-67
2022/08/19 02:40:29;;;;;;;15.27;13.68;;;;;;;22.97;55.45;100165.34;4159126;28;20430;-67
2022/08/19 02:42:32;;;;;;;15.43;14.00;;;;;;;22.97;56.27;100162.72;4164960;28;20051;-66
2022/08/19 02:44:35;;;;;;;16.17;14.57;;;;;;;22.94;56.16;100161.97;4164129;28;20042;-66
2022/08/19 02:46:39;;;;;;;18.38;14.60;;;;;;;22.92;56.08;100162.03;4157373;28;20041;-66
2022/08/19 02:48:43;;;;;;;17.80;16.10;;;;;;;22.88;56.21;100165.75;4160594;28;20033;-66
2022/08/19 02:50:46;;;;;;;15.13;13.63;;;;;;;22.82;56.25;100164.22;4152576;28;20048;-66
2022/08/19 02:52:55;;;;;;;16.35;14.60;;;;;;;22.84;56.36;100165.00;4148506;28;20107;-66
2022/08/19 02:54:58;;;;;;;17.23;15.63;;;;;;;22.86;55.95;100159.63;4150243;28;20126;-66
2022/08/19 02:57:01;;;;;;;20.27;18.27;;;;;;;22.87;56.02;100158.72;4164707;28;20415;-67
2022/08/19 02:59:09;;;;;;;17.33;15.65;;;;;;;22.84;56.08;100162.34;4166088;28;20483;-67
2022/08/19 03:01:21;;;;;;;16.17;14.57;;;;;;;22.88;56.20;100162.22;4163695;28;20042;-66
2022/08/19 03:03:25;;;;;;;19.30;17.30;;;;;;;22.88;55.82;100157.81;4164727;28;20061;-66
2022/08/19 03:05:28;;;;;;;17.73;15.93;;;;;;;22.93;55.31;100162.91;4159485;28;20038;-66
2022/08/19 03:07:51;;;;;;;20.08;18.13;;;;;;;22.78;55.69;100159.09;4158955;28;20089;-66
2022/08/19 03:09:54;;;;;;;17.48;15.60;;;;;;;22.79;55.75;100155.50;4161838;28;20044;-65
2022/08/19 03:11:57;;;;;;;20.70;18.77;;;;;;;22.72;55.71;100151.38;4163028;28;20083;-66
2022/08/19 03:14:00;;;;;;;19.07;17.17;;;;;;;22.69;55.60;100147.06;4127089;28;1082055;-67
2022/08/19 03:16:06;;;;;;;19.48;16.90;;;;;;;22.63;55.72;100142.91;4157788;28;20041;-66
2022/08/19 03:18:09;;;;;;;19.55;17.55;;;;;;;22.64;55.61;100144.63;4160310;28;20136;-66
2022/08/19 03:20:13;;;;;;;17.85;16.15;;;;;;;22.61;55.63;100144.75;4163409;28;20062;-66
2022/08/19 03:22:16;;;;;;;18.05;16.25;;;;;;;22.69;55.50;100154.16;4153818;28;20535;-66
2022/08/19 03:24:20;;;;;;;19.92;17.45;;;;;;;22.72;55.57;100149.63;4156543;28;20045;-66
2022/08/19 03:26:23;;;;;;;20.65;18.55;;;;;;;22.75;55.11;100151.25;4162242;28;20450;-66
2022/08/19 03:28:28;;;;;;;18.98;16.95;;;;;;;22.70;55.45;100155.91;4163877;28;20049;-66
2022/08/19 03:30:31;;;;;;;22.08;19.67;;;;;;;22.70;55.31;100158.56;4165432;28;20103;-66
2022/08/19 03:32:35;;;;;;;22.55;20.35;;;;;;;22.80;55.12;100163.41;4165655;28;20041;-66
2022/08/19 03:34:47;;;;;;;21.00;18.73;;;;;;;22.70;55.37;100161.22;4164278;28;20041;-66
2022/08/19 03:36:51;;;;;;;22.45;20.15;;;;;;;22.66;55.44;100150.72;4165201;28;20033;-66
2022/08/19 03:38:56;;;;;;;;;;;;;;;22.45;56.11;100162.19;4157510;28;20037;-68
2022/08/19 03:41:06;;;;;;;22.85;20.05;;;;;;;22.79;55.25;100160.81;4175834;28;19928;-68
2022/08/19 03:43:08;;;;;;;19.75;17.85;;;;;;;22.56;55.91;100157.34;4159241;28;20064;-68
2022/08/19 03:45:11;;;;;;;20.50;18.15;;;;;;;22.49;56.20;100159.34;4162957;28;20124;-67
2022/08/19 03:47:16;;;;;;;19.95;16.15;;;;;;;22.49;55.89;100158.50;4163278;28;20088;-68
2022/08/19 03:49:21;;;;;;;17.10;15.35;;;;;;;22.46;56.17;100148.88;4155097;28;20045;-68
2022/08/19 03:51:34;;;;;;;17.65;15.85;;;;;;;22.43;56.25;100158.75;4160797;28;20045;-67
2022/08/19 03:53:39;;;;;;;19.45;17.42;;;;;;;22.41;56.34;100165.88;4160533;28;20045;-67
2022/08/19 03:55:42;;;;;;;17.52;15.00;;;;;;;22.45;56.24;100165.69;4164729;28;20033;-68
2022/08/19 03:57:47;;;;;;;18.83;17.05;;;;;;;22.58;55.70;100159.91;4160302;28;20041;-68
2022/08/19 03:59:50;;;;;;;16.77;14.27;;;;;;;22.50;56.32;100170.81;4163540;28;20499;-67
2022/08/19 04:01:53;;;;;;;20.58;18.33;;;;;;;22.66;55.66;100171.94;4162306;28;20034;-67
2022/08/19 04:03:58;;;;;;;20.10;18.00;;;;;;;22.60;55.66;100164.22;4161610;28;20053;-67
2022/08/19 04:06:10;;;;;;;16.05;14.23;;;;;;;22.55;55.65;100166.19;4158215;28;20038;-68
2022/08/19 04:08:15;;;;;;;20.67;17.75;;;;;;;22.51;55.83;100169.88;4162134;28;20041;-67
2022/08/19 04:10:19;;;;;;;18.77;16.75;;;;;;;22.58;55.46;100166.06;4162000;28;20132;-67
2022/08/19 04:12:22;;;;;;;;;;;;;;;22.47;55.95;100177.13;4160746;28;20044;-68
2022/08/19 04:14:29;;;;;;;17.52;15.82;;;;;;;22.67;55.14;100173.63;4159198;28;20410;-68
2022/08/19 04:16:32;;;;;;;15.90;14.23;;;;;;;22.61;55.00;100179.19;4158050;28;20042;-69
2022/08/19 04:18:38;;;;;;;17.88;15.82;;;;;;;22.50;55.69;100186.69;4160271;28;20052;-68
2022/08/19 04:20:42;;;;;;;;;;;;;;;22.36;55.65;100176.66;4164332;28;20043;-69
2022/08/19 04:22:45;;;;;;;17.25;15.40;;;;;;;22.40;56.00;100174.75;4154792;28;19928;-68
2022/08/19 04:24:48;;;;;;;18.55;16.70;;;;;;;22.47;55.70;100162.97;4162415;28;20037;-68
2022/08/19 04:26:53;;;;;;;19.20;17.30;;;;;;;22.44;55.73;100171.06;4163728;28;20042;-68
2022/08/19 04:28:56;;;;;;;18.02;16.23;;;;;;;22.45;55.79;100172.78;4157091;28;20125;-68
2022/08/19 04:30:59;;;;;;;16.98;15.32;;;;;;;22.42;55.81;100163.16;4161217;28;20041;-68
2022/08/19 04:33:02;;;;;;;16.33;14.73;;;;;;;22.39;55.80;100165.09;4161959;28;20064;-68
2022/08/19 04:35:05;;;;;;;17.77;16.00;;;;;;;22.44;55.78;100168.41;4163038;28;20034;-69
2022/08/19 04:37:20;;;;;;;17.20;15.40;;;;;;;22.46;55.56;100164.78;4153881;28;20037;-69
2022/08/19 04:42:38;;;;;;;15.65;13.93;;;;;;;22.46;55.77;100163.94;4160283;28;20093;-69
2022/08/19 04:44:12;;;;;;;17.42;15.60;;;;;;;22.49;55.74;100163.81;4158683;28;20491;-68
2022/08/19 04:46:16;;;;;;;15.77;14.18;;;;;;;22.50;55.40;100168.16;4162696;28;20046;-68
2022/08/19 04:48:40;;;;;;;16.63;15.02;;;;;;;22.47;55.68;100163.88;4161522;28;20029;-69
2022/08/19 04:50:57;;;;;;;16.58;14.77;;;;;;;22.50;55.72;100160.22;4151328;28;20044;-67
2022/08/19 04:53:00;;;;;;;18.55;16.65;;;;;;;22.50;55.48;100168.16;4161341;28;20033;-67
2022/08/19 04:55:05;;;;;;;19.20;17.30;;;;;;;22.56;55.50;100164.41;4161549;28;20088;-68
2022/08/19 04:57:09;;;;;;;17.52;15.93;;;;;;;22.52;55.67;100173.44;4162656;28;20041;-68
2022/08/19 04:59:14;;;;;;;19.80;16.10;;;;;;;22.53;55.56;100172.47;4160845;28;20041;-68
2022/08/19 05:01:20;;;;;;;15.77;14.25;;;;;;;22.54;55.82;100176.84;4159950;28;20467;-68
2022/08/19 05:03:23;;;;;;;16.92;15.18;;;;;;;22.53;55.88;100180.41;4162492;28;20051;-68
2022/08/19 05:05:32;;;;;;;20.83;17.67;;;;;;;22.61;55.94;100175.69;4163319;28;20037;-68
2022/08/19 05:07:47;;;;;;;18.85;16.95;;;;;;;22.59;55.65;100172.22;4158631;28;20128;-68
2022/08/19 05:09:50;;;;;;;19.42;17.10;;;;;;;22.59;55.72;100170.47;4163906;28;20041;-68
2022/08/19 05:12:01;;;;;;;19.88;17.90;;;;;;;22.54;55.85;100161.81;4163328;28;20554;-67
2022/08/19 05:14:03;;;;;;;19.80;17.73;;;;;;;22.62;55.52;100170.31;4164298;28;20041;-67
2022/08/19 05:16:08;;;;;;;20.42;16.60;;;;;;;22.60;55.75;100172.16;4157316;28;20067;-68
2022/08/19 05:22:55;;;;;;;16.60;14.82;;;;;;;22.48;56.39;100192.06;4163184;28;20144;-68
2022/08/19 05:24:58;;;;;;;14.60;13.10;;;;;;;22.51;56.39;100195.53;4163834;28;20037;-68
2022/08/19 05:27:16;;;;;;;15.73;11.90;;;;;;;22.55;56.56;100190.03;4162535;28;20038;-68
2022/08/19 05:29:21;;;;;;;13.88;12.10;;;;;;;22.61;56.44;100184.50;4163943;28;20095;-68
2022/08/19 05:31:26;;;;;;;18.23;13.25;;;;;;;22.71;56.43;100184.13;4189454;28;20123;-68
2022/08/19 05:33:28;;;;;;;;;;;;;;;22.70;56.11;100187.69;4165805;28;20040;-68
2022/08/19 05:35:31;;;;;;;16.85;13.52;;;;;;;22.76;56.23;100190.09;4163389;28;19948;-68
2022/08/19 05:37:36;;;;;;;13.70;11.25;;;;;;;22.72;56.21;100196.44;4162338;28;20046;-68
2022/08/19 05:39:40;;;;;;;14.82;12.82;;;;;;;22.73;55.99;100206.13;4162293;28;20038;-69
2022/08/19 05:41:43;;;;;;;16.90;14.57;;;;;;;22.79;55.87;100200.56;4147100;28;20042;-68
2022/08/19 05:43:46;;;;;;;14.10;12.60;;;;;;;22.79;55.87;100203.22;4147355;28;20042;-69
2022/08/19 05:45:50;;;;;;;14.27;12.88;;;;;;;22.80;55.75;100203.16;4155954;28;20798;-68
2022/08/19 05:47:54;;;;;;;15.30;13.80;;;;;;;22.87;55.92;100209.09;4162355;28;20414;-68
2022/08/19 05:49:57;;;;;;;11.63;10.50;;;;;;;22.81;55.85;100214.66;4163697;28;20128;-69
2022/08/19 05:52:03;;;;;;;13.18;11.88;;;;;;;22.87;56.00;100221.44;4156856;28;20038;-69
2022/08/19 05:54:06;;;;;;;14.10;12.05;;;;;;;22.88;55.71;100218.78;4146027;28;20057;-68
2022/08/19 05:56:14;;;;;;;16.40;14.63;;;;;;;23.00;54.99;100231.50;4155610;28;20041;-67
2022/08/19 05:58:17;;;;;;;14.40;12.85;;;;;;;22.98;55.24;100233.38;4163684;28;20296;-68
2022/08/19 06:00:25;;;;;;;14.02;12.63;;;;;;;23.00;55.49;100244.75;4163737;28;20071;-69
2022/08/19 06:02:30;;;;;;;14.70;12.63;;;;;;;23.08;55.35;100246.25;4153940;28;20033;-68
2022/08/19 06:04:35;;;;;;;15.57;12.38;;;;;;;23.08;55.44;100246.25;4158679;28;20068;-69
2022/08/19 06:06:38;;;;;;;15.15;13.55;;;;;;;23.20;54.65;100251.06;4161998;28;20034;-69
2022/08/19 06:08:42;;;;;;;13.18;11.73;;;;;;;23.05;55.28;100246.38;4163128;28;20029;-69
2022/08/19 06:10:45;;;;;;;;;;;;;;;23.00;55.61;100255.38;4162714;28;20788;-68
2022/08/19 06:12:48;;;;;;;14.15;12.65;;;;;;;23.05;55.54;100262.28;4163005;28;19928;-68
2022/08/19 06:14:52;;;;;;;16.65;14.88;;;;;;;23.13;55.04;100260.19;4164334;28;20398;-68
2022/08/19 06:17:03;;;;;;;12.93;11.07;;;;;;;23.09;55.45;100277.16;4143398;28;20128;-68
2022/08/19 06:19:12;;;;;;;15.68;12.15;;;;;;;23.09;55.28;100279.78;4164988;28;20045;-69
2022/08/19 06:21:16;;;;;;;13.55;11.50;;;;;;;23.21;55.09;100271.34;4165773;28;20057;-69
2022/08/19 06:23:19;;;;;;;19.35;12.73;;;;;;;23.09;55.30;100277.16;4165379;28;20083;-69
2022/08/19 06:25:26;;;;;;;13.38;11.98;;;;;;;23.02;55.24;100271.22;4161711;28;20046;-69
2022/08/19 06:27:33;;;;;;;16.05;11.75;;;;;;;22.92;55.35;100270.72;4165616;28;20124;-68
2022/08/19 06:29:36;;;;;;;11.82;10.63;;;;;;;22.96;55.45;100269.66;4164357;28;20495;-68
2022/08/19 06:31:43;;;;;;;16.30;13.87;;;;;;;22.93;55.26;100272.44;4158200;28;20044;-68
2022/08/19 06:33:47;;;;;;;13.45;11.88;;;;;;;23.01;55.42;100278.31;4163597;28;20036;-68
2022/08/19 06:35:52;;;;;;;14.68;12.35;;;;;;;22.99;55.47;100274.84;4165568;28;20030;-68
2022/08/19 06:37:56;;;;;;;15.80;12.90;;;;;;;23.08;54.62;100280.72;4165848;28;20060;-67
2022/08/19 06:39:59;;;;;;;14.20;12.35;;;;;;;23.14;54.63;100277.84;4164616;28;20045;-68
2022/08/19 06:42:06;;;;;;;12.98;10.25;;;;;;;23.04;55.09;100277.31;4165855;28;20076;-68
2022/08/19 06:44:13;;;;;;;14.18;12.68;;;;;;;23.13;54.92;100276.09;4166108;28;20042;-67
2022/08/19 06:46:18;;;;;;;13.15;11.75;;;;;;;23.08;55.15;100281.56;4165649;28;20048;-68
2022/08/19 06:48:21;;;;;;;13.80;12.35;;;;;;;23.21;54.42;100273.16;4175486;28;20049;-68
2022/08/19 06:50:27;;;;;;;18.23;13.18;;;;;;;23.17;54.79;100280.34;4158536;28;20393;-67
2022/08/19 06:52:32;;;;;;;13.18;11.77;;;;;;;23.18;54.65;100274.13;4163406;28;20133;-67
2022/08/19 06:54:37;;;;;;;12.18;10.00;;;;;;;23.00;55.46;100288.97;4156472;28;20046;-67
2022/08/19 06:57:01;;;;;;;11.98;10.45;;;;;;;23.02;55.25;100303.03;4160160;28;20442;-68
2022/08/19 06:59:06;;;;;;;13.35;9.50;;;;;;;23.02;55.58;100295.06;4145537;28;20064;-68
2022/08/19 07:01:10;;;;;;;14.23;9.45;;;;;;;23.05;55.29;100302.06;4159650;28;20045;-68
2022/08/19 07:03:13;;;;;;;11.07;8.52;;;;;;;23.08;55.71;100297.47;4163253;28;20033;-68
2022/08/19 07:05:17;;;;;;;15.10;12.93;;;;;;;23.20;55.89;100289.97;4160860;28;20045;-68
2022/08/19 07:07:22;;;;;;;15.27;12.95;;;;;;;23.24;55.47;100291.59;4157576;28;20129;-67
2022/08/19 07:09:25;;;;;;;15.18;12.95;;;;;;;23.30;55.26;100281.56;4154416;28;20034;-68
2022/08/19 07:11:30;;;;;;;15.75;12.90;;;;;;;23.40;54.64;100283.84;4156324;28;20045;-68
2022/08/19 07:13:37;;;;;;;14.70;13.30;;;;;;;23.41;54.31;100282.91;4154968;28;20060;-66
2022/08/19 07:15:40;;;;;;;17.85;12.27;;;;;;;23.28;55.04;100278.13;4162840;28;20045;-67
2022/08/19 07:17:43;;;;;;;13.65;11.32;;;;;;;23.21;55.32;100286.41;4161154;28;20037;-67
2022/08/19 07:19:46;;;;;;;12.00;10.30;;;;;;;23.20;55.57;100293.50;4156077;28;20050;-67
2022/08/19 07:21:52;;;;;;;13.27;9.73;;;;;;;23.27;55.34;100300.28;4159171;28;20049;-68
2022/08/19 07:23:56;;;;;;;14.35;9.80;;;;;;;23.35;54.84;100292.00;4160082;28;20492;-68
2022/08/19 07:26:04;;;;;;;12.97;11.37;;;;;;;23.44;54.40;100296.06;4159908;28;20053;-67
2022/08/19 07:28:10;;;;;;;13.60;11.32;;;;;;;23.42;54.75;100297.91;4162310;28;20300;-67
2022/08/19 07:30:25;;;;;;;11.68;10.48;;;;;;;23.43;54.75;100297.00;4158084;28;20046;-67
2022/08/19 07:32:30;;;;;;;19.48;11.55;;;;;;;23.45;54.48;100298.66;4158023;28;20108;-67
2022/08/19 07:34:36;;;;;;;12.98;10.18;;;;;;;23.47;54.33;100296.78;4155683;28;20095;-67
2022/08/19 07:36:43;;;;;;;15.77;10.70;;;;;;;23.44;54.42;100299.56;4156815;28;20144;-68
2022/08/19 07:38:47;;;;;;;;;;;;;;;23.49;54.28;100299.38;4159323;28;20451;-68
2022/08/19 07:40:51;;;;;;;12.45;10.27;;;;;;;23.48;54.40;100297.66;4159805;28;20031;-68
2022/08/19 07:42:54;;;;;;;11.27;9.70;;;;;;;23.57;54.05;100299.03;4160374;28;20041;-67
2022/08/19 07:44:58;;;;;;;14.32;9.13;;;;;;;23.59;54.27;100294.56;4142243;28;20042;-67
2022/08/19 07:47:02;;;;;;;11.95;10.63;;;;;;;23.71;54.23;100296.66;4157957;28;20030;-68
2022/08/19 07:49:08;;;;;;;13.45;10.13;;;;;;;23.78;53.73;100295.47;4156590;28;20091;-67
2022/08/19 07:51:12;;;;;;;12.20;9.70;;;;;;;23.68;54.08;100295.03;4160023;28;20051;-67
2022/08/19 07:53:32;;;;;;;13.98;9.13;;;;;;;23.60;54.57;100299.78;4159445;28;20539;-67
2022/08/19 07:55:41;;;;;;;9.90;7.50;;;;;;;23.63;54.64;100296.16;4175794;28;20518;-68
2022/08/19 07:57:45;;;;;;;12.40;8.38;;;;;;;23.79;54.47;100299.00;4159160;28;20037;-67
2022/08/19 07:59:48;;;;;;;13.27;8.88;;;;;;;23.87;54.10;100292.47;4156710;28;20052;-68
2022/08/19 08:01:53;;;;;;;11.07;9.95;;;;;;;24.04;53.58;100293.50;4156669;28;20384;-67
2022/08/19 08:11:00;;;;;;;11.65;9.65;;;;;;;24.16;52.89;100292.09;4158454;28;20037;-67
2022/08/19 08:13:05;;;;;;;11.90;9.13;;;;;;;24.23;52.58;100291.75;4156922;28;20041;-66
2022/08/19 08:15:16;;;;;;;12.75;9.38;;;;;;;24.16;52.95;100292.94;4156861;28;20059;-68
2022/08/19 08:17:23;;;;;;;13.15;8.80;;;;;;;24.09;52.82;100288.00;4159788;28;20423;-67
2022/08/19 08:19:46;;;;;;;11.27;9.55;;;;;;;24.08;52.84;100286.25;4157577;28;20491;-67
2022/08/19 08:21:55;;;;;;;12.88;9.18;;;;;;;24.04;53.11;100285.53;4158153;28;20124;-69
2022/08/19 08:23:57;;;;;;;17.70;8.40;;;;;;;24.06;53.40;100278.34;4158580;28;20037;-67
2022/08/19 08:26:05;;;;;;;10.95;8.23;;;;;;;24.18;53.26;100282.25;4156050;28;20124;-68
2022/08/19 08:28:08;;;;;;;9.55;7.88;;;;;;;24.30;53.38;100292.34;4139795;28;20038;-67
2022/08/19 08:30:17;;;;;;;11.15;7.70;;;;;;;24.36;52.84;100293.84;4156607;28;20073;-68
2022/08/19 08:32:21;;;;;;;14.20;8.98;;;;;;;24.50;51.83;100301.16;4152352;28;20399;-67
2022/08/19 08:34:24;;;;;;;11.77;8.38;;;;;;;24.35;51.73;100294.78;4155608;28;20136;-65
2022/08/19 08:36:28;;;;;;;9.13;7.18;;;;;;;24.36;52.00;100294.72;4155794;28;20442;-65
2022/08/19 08:38:31;;;;;;;10.50;7.50;;;;;;;24.37;52.22;100296.44;4158959;28;20029;-66
2022/08/19 08:40:46;;;;;;;10.63;8.23;;;;;;;24.54;51.70;100292.13;4162823;28;20037;-66
2022/08/19 08:43:00;;;;;;;9.75;7.40;;;;;;;24.54;51.54;100305.41;4163908;28;20033;-67
2022/08/19 08:45:15;;;;;;;13.50;8.05;;;;;;;24.66;51.26;100294.25;4156119;28;20033;-66
2022/08/19 08:47:21;;;;;;;13.25;8.30;;;;;;;24.73;51.19;100292.16;4156875;28;20042;-66
2022/08/19 08:49:31;;;;;;;13.05;8.43;;;;;;;24.80;51.59;100280.28;4157354;28;20060;-66
2022/08/19 08:51:39;;;;;;;9.30;7.10;;;;;;;24.95;51.10;100291.97;4156802;28;20041;-67
2022/08/19 08:53:50;;;;;;;11.52;8.45;;;;;;;25.07;50.07;100293.19;4155984;28;20093;-66
2022/08/19 08:55:58;;;;;;;9.73;7.32;;;;;;;25.12;50.16;100298.31;4158765;28;20038;-67
2022/08/19 08:58:05;;;;;;;8.70;6.93;;;;;;;24.99;50.94;100303.34;4155569;28;20050;-66
2022/08/19 09:00:12;;;;;;;9.82;7.03;;;;;;;25.13;50.48;100303.53;4153057;28;20491;-66
2022/08/19 09:02:17;;;;;;;11.30;10.10;;;;;;;25.30;49.01;100308.00;4156613;28;20044;-67
2022/08/19 09:04:22;;;;;;;11.68;8.50;;;;;;;25.05;49.63;100311.88;4154665;28;20045;-65
2022/08/19 09:06:36;;;;;;;11.50;9.98;;;;;;;24.96;49.63;100307.00;4156697;28;20459;-66
2022/08/19 09:08:51;;;;;;;11.52;9.07;;;;;;;25.12;49.54;100308.94;4160463;28;20049;-66
2022/08/19 09:10:58;;;;;;;10.57;6.40;;;;;;;25.05;50.15;100298.56;4154561;28;20045;-66
2022/08/19 09:13:12;;;;;;;10.48;7.78;;;;;;;25.12;49.96;100296.50;4158504;28;20045;-67
2022/08/19 09:15:29;;;;;;;13.18;9.30;;;;;;;25.43;48.68;100292.31;4157552;28;20059;-66
2022/08/19 09:17:38;;;;;;;9.18;7.72;;;;;;;25.33;49.41;100288.41;4159208;28;20124;-66
2022/08/19 09:19:51;;;;;;;10.80;8.25;;;;;;;25.55;47.98;100285.53;4157168;28;20041;-67
2022/08/19 09:21:56;;;;;;;8.63;6.55;;;;;;;25.49;48.39;100291.16;4171438;28;20136;-65
2022/08/19 09:23:59;;;;;;;;;;;;;;;25.49;48.49;100291.16;4169765;28;20037;-67
2022/08/19 09:26:02;;;;;;;10.98;7.72;;;;;;;25.55;48.26;100293.50;4155831;28;20349;-65
2022/08/19 09:28:05;;;;;;;9.25;7.55;;;;;;;25.51;48.39;100289.28;4158196;28;20044;-65
2022/08/19 09:30:27;;;;;;;9.55;7.78;;;;;;;25.55;48.76;100289.06;4159845;28;20049;-65
2022/08/19 09:32:33;;;;;;;11.18;8.57;;;;;;;25.60;48.79;100289.66;4156458;28;20042;-65
2022/08/19 09:34:38;;;;;;;11.05;8.52;;;;;;;25.58;48.60;100293.34;4157446;28;20042;-65
2022/08/19 09:36:53;;;;;;;11.05;9.82;;;;;;;25.68;48.12;100293.75;4153078;28;20440;-66
2022/08/19 09:38:59;;;;;;;11.07;9.40;;;;;;;25.69;48.06;100291.00;4155462;28;20395;-64
2022/08/19 09:41:06;;;;;;;12.45;8.82;;;;;;;25.67;48.31;100279.56;4158231;28;20057;-65
2022/08/19 09:43:10;;;;;;;12.10;7.75;;;;;;;25.51;49.34;100289.28;4153230;28;20100;-65
2022/08/19 09:45:17;;;;;;;13.50;9.25;;;;;;;25.56;48.38;100289.91;4147572;28;20069;-66
2022/08/19 09:47:19;;;;;;;12.23;9.13;;;;;;;25.49;48.78;100291.16;4163115;28;20033;-66
2022/08/19 09:49:24;;;;;;;11.45;9.13;;;;;;;25.43;48.75;100287.84;4162068;28;20061;-65
2022/08/19 09:51:29;;;;;;;13.20;8.68;;;;;;;25.33;48.94;100289.25;4159648;28;20040;-65